createdAt,value
2023-03-05T00:08:33.399Z,977.39
2023-03-05T00:20:33.864Z,977.39
2023-03-05T00:32:34.346Z,977.41
2023-03-05T00:44:34.778Z,977.33
2023-03-05T00:56:35.196Z,977.31
2023-03-05T01:08:35.623Z,977.31
2023-03-05T01:20:36.084Z,977.24
2023-03-05T01:32:36.540Z,977.16
2023-03-05T01:44:36.936Z,977.14
2023-03-05T01:56:37.436Z,977.12
2023-03-05T02:08:37.917Z,977.02
2023-03-05T02:20:38.330Z,977.00
2023-03-05T02:32:38.831Z,976.91
2023-03-05T02:44:39.252Z,976.87
2023-03-05T02:56:39.723Z,976.79
2023-03-05T03:08:40.106Z,976.68
2023-03-05T03:20:40.771Z,976.55
2023-03-05T03:32:41.071Z,976.48
2023-03-05T03:44:41.544Z,976.50
2023-03-05T03:56:41.959Z,976.41
2023-03-05T04:08:42.409Z,976.37
2023-03-05T04:20:42.864Z,976.26
2023-03-05T04:32:43.319Z,976.21
2023-03-05T04:44:43.744Z,976.16
2023-03-05T04:56:44.215Z,976.10
2023-03-05T05:08:44.690Z,976.09
2023-03-05T05:20:45.136Z,976.12
2023-03-05T05:32:45.545Z,976.18
2023-03-05T05:44:46.034Z,976.21
2023-03-05T05:56:46.496Z,976.31
2023-03-05T06:08:46.954Z,976.47
2023-03-05T06:20:47.370Z,976.38
2023-03-05T06:32:47.828Z,976.49
2023-03-05T06:44:48.491Z,976.44
2023-03-05T06:56:48.760Z,976.38
2023-03-05T07:08:49.198Z,976.39
2023-03-05T07:20:49.651Z,976.33
2023-03-05T07:32:50.113Z,976.09
2023-03-05T07:44:50.568Z,976.20
2023-03-05T07:56:51.002Z,976.02
2023-03-05T08:08:51.469Z,975.97
2023-03-05T08:20:51.903Z,975.93
2023-03-05T08:32:52.379Z,975.83
2023-03-05T08:44:52.799Z,975.82
2023-03-05T08:56:53.253Z,975.84
2023-03-05T09:08:53.669Z,975.71
2023-03-05T09:20:54.214Z,975.69
2023-03-05T09:32:54.601Z,975.60
2023-03-05T09:44:55.073Z,975.50
2023-03-05T09:56:55.524Z,975.40
2023-03-05T10:08:56.007Z,975.31
2023-03-05T10:20:56.401Z,975.13
2023-03-05T10:32:56.881Z,974.99
2023-03-05T10:44:57.312Z,974.87
2023-03-05T10:56:57.803Z,974.75
2023-03-05T11:08:58.242Z,974.48
2023-03-05T11:20:58.689Z,974.24
2023-03-05T11:32:59.128Z,974.11
2023-03-05T11:44:59.655Z,973.80
2023-03-05T11:57:00.052Z,973.66
2023-03-05T12:09:00.518Z,973.55
2023-03-05T12:21:00.955Z,973.52
2023-03-05T12:33:01.448Z,973.40
2023-03-05T12:45:01.875Z,973.30
2023-03-05T12:57:02.331Z,973.41
2023-03-05T13:09:02.737Z,973.25
2023-03-05T13:21:03.237Z,973.27
2023-03-05T13:33:03.657Z,973.11
2023-03-05T13:45:04.134Z,973.12
2023-03-05T13:57:04.547Z,973.09
2023-03-05T14:09:05.033Z,972.93
2023-03-05T14:21:05.474Z,972.75
2023-03-05T14:33:05.981Z,972.68
2023-03-05T14:45:06.363Z,972.65
2023-03-05T14:57:06.849Z,972.70
2023-03-05T15:09:07.261Z,972.51
2023-03-05T15:21:07.760Z,972.43
2023-03-05T15:33:08.205Z,972.39
2023-03-05T15:45:08.668Z,972.52
2023-03-05T15:57:09.136Z,972.47
2023-03-05T16:09:09.519Z,972.53
2023-03-05T16:21:09.989Z,972.60
2023-03-05T16:33:10.481Z,972.62
2023-03-05T16:45:10.902Z,972.57
2023-03-05T16:57:11.383Z,972.57
2023-03-05T17:09:11.849Z,972.62
2023-03-05T17:21:12.312Z,972.69
2023-03-05T17:33:12.761Z,972.89
2023-03-05T17:45:13.182Z,972.89
2023-03-05T17:57:13.625Z,972.92
2023-03-05T18:09:14.085Z,972.93
2023-03-05T18:21:14.563Z,972.85
2023-03-05T18:33:14.988Z,972.83
2023-03-05T18:45:15.437Z,972.94
2023-03-05T18:57:15.876Z,972.85
2023-03-05T19:09:16.318Z,972.90
2023-03-05T19:21:16.796Z,972.87
2023-03-05T19:33:17.279Z,972.89
2023-03-05T19:45:17.761Z,972.85
2023-03-05T19:57:18.136Z,972.86
2023-03-05T20:09:18.652Z,972.72
2023-03-05T20:21:19.055Z,972.75
2023-03-05T20:33:19.507Z,972.80
2023-03-05T20:45:19.965Z,972.65
2023-03-05T20:57:20.405Z,972.60
2023-03-05T21:09:20.882Z,972.53
2023-03-05T21:21:21.358Z,972.48
2023-03-05T21:33:21.772Z,972.45
2023-03-05T21:45:22.217Z,972.35
2023-03-05T21:57:22.663Z,972.28
2023-03-05T22:09:23.154Z,972.27
2023-03-05T22:21:23.573Z,972.13
2023-03-05T22:33:24.051Z,972.08
2023-03-05T22:45:24.437Z,972.13
2023-03-05T22:57:24.927Z,971.99
2023-03-05T23:09:25.405Z,971.96
2023-03-05T23:21:25.835Z,971.86
2023-03-05T23:33:26.299Z,971.86
2023-03-05T23:45:26.756Z,971.79
2023-03-05T23:57:27.177Z,971.78
